KVKS/VKS METAR and TAF weather

Enter ICAO airport designator
Station Type Date Time Source
KVKS METAR 2020/10/20 17:55 UTC NOAA

KVKS 201755Z AUTO 11004KT 10SM CLR 28/19 A3008 RMK A01


Station Type Date Time Source
KVKS Decoded METAR 2020/10/20 17:55 UTC NOAA

Vicksburg Municipal, MS, United States (KVKS) 32-14N 090-56W
Oct 20, 2020 - 01:55 PM EDT / 2020.10.20 1755 UTC
Wind: from the ESE (110 degrees) at 5 MPH (4 KT):0
Visibility: 10 mile(s):0
Sky conditions: clear
Temperature: 82 F (28 C)
Dew Point: 66 F (19 C)
Relative Humidity: 58%
Pressure (altimeter): 30.08 in. Hg (1018 hPa)
ob: KVKS 201755Z AUTO 11004KT 10SM CLR 28/19 A3008 RMK A01
cycle: 18

Station Type Date Time Source
KVKS TAF UTC NOAA

Error!

Example: see airport list